Time;durP1;ratioP1;P1;durP2;ratioP2;P2;SDS_P1;SDS_P2;PMS_P1;PMS_P2;Temp;Humidity;BMP_temperature;BMP_pressure;BME280_temperature;BME280_humidity;BME280_pressure;Samples;Min_cycle;Max_cycle;Signal;HPM_P1;HPM_P2
2021/09/08 00:00:28;;;;;;;;;13.25;13.00;;;;;;;;5068476;28;8799;-77
2021/09/08 00:02:57;;;;;;;;;12.00;12.00;;;;;;;;5071916;28;8865;-79
2021/09/08 00:05:25;;;;;;;;;15.00;14.50;;;;;;;;5067566;28;8834;-79
2021/09/08 00:07:52;;;;;;;;;12.50;12.00;;;;;;;;5066463;28;8888;-79
2021/09/08 00:10:19;;;;;;;;;13.50;13.50;;;;;;;;5069431;28;8865;-77
2021/09/08 00:12:48;;;;;;;;;16.00;16.00;;;;;;;;5071800;28;8968;-79
2021/09/08 00:15:15;;;;;;;;;15.50;13.50;;;;;;;;5070297;28;8872;-76
2021/09/08 00:17:43;;;;;;;;;12.50;12.50;;;;;;;;5071177;28;8906;-77
2021/09/08 00:20:15;;;;;;;;;16.25;15.50;;;;;;;;5069269;28;8987;-80
2021/09/08 00:22:43;;;;;;;;;15.25;15.25;;;;;;;;5049759;28;8864;-79
2021/09/08 00:25:11;;;;;;;;;16.75;14.50;;;;;;;;5052941;28;8933;-77
2021/09/08 00:27:38;;;;;;;;;16.00;13.75;;;;;;;;5067107;28;8884;-75
2021/09/08 00:30:07;;;;;;;;;16.25;16.25;;;;;;;;5070257;28;8917;-78
2021/09/08 00:32:35;;;;;;;;;19.00;15.75;;;;;;;;5066494;28;8867;-77
2021/09/08 00:35:03;;;;;;;;;14.50;14.50;;;;;;;;5065375;28;8888;-79
2021/09/08 00:37:32;;;;;;;;;12.25;12.25;;;;;;;;5067770;28;8883;-78
2021/09/08 00:39:59;;;;;;;;;17.50;17.50;;;;;;;;5049138;28;8866;-79
2021/09/08 00:42:27;;;;;;;;;17.00;15.75;;;;;;;;5066539;28;8866;-79
2021/09/08 00:44:54;;;;;;;;;20.75;15.75;;;;;;;;5069417;28;8895;-77
2021/09/08 00:47:21;;;;;;;;;16.25;14.50;;;;;;;;5070489;28;8877;-79
2021/09/08 00:49:48;;;;;;;;;17.00;15.75;;;;;;;;5069156;28;8829;-79
2021/09/08 00:52:17;;;;;;;;;15.75;15.75;;;;;;;;5071297;28;8972;-76
2021/09/08 00:54:50;;;;;;;;;15.75;13.50;;;;;;;;5071975;28;8873;-78
2021/09/08 00:57:18;;;;;;;;;16.75;16.00;;;;;;;;5070016;28;8848;-78
2021/09/08 00:59:46;;;;;;;;;14.50;14.50;;;;;;;;5072577;28;9007;-77
2021/09/08 01:02:13;;;;;;;;;18.75;15.25;;;;;;;;5064863;28;8834;-78
2021/09/08 01:04:41;;;;;;;;;18.25;18.25;;;;;;;;5070229;28;8890;-77
2021/09/08 01:07:08;;;;;;;;;15.00;15.00;;;;;;;;5068819;28;8857;-79
2021/09/08 01:09:36;;;;;;;;;16.50;14.75;;;;;;;;5070709;28;8891;-77
2021/09/08 01:12:05;;;;;;;;;17.75;17.00;;;;;;;;5070064;28;8871;-79
2021/09/08 01:14:32;;;;;;;;;16.50;15.50;;;;;;;;5069659;28;8863;-77
2021/09/08 01:17:00;;;;;;;;;14.50;14.50;;;;;;;;5069182;28;8844;-76
2021/09/08 01:19:27;;;;;;;;;16.75;14.75;;;;;;;;5066831;28;8864;-79
2021/09/08 01:21:55;;;;;;;;;16.25;15.00;;;;;;;;5069586;28;8857;-79
2021/09/08 01:24:24;;;;;;;;;15.25;14.00;;;;;;;;5070371;28;9611;-79
2021/09/08 01:26:53;;;;;;;;;10.75;10.75;;;;;;;;5069751;28;9890;-79
2021/09/08 01:29:21;;;;;;;;;18.75;17.00;;;;;;;;5071877;28;8859;-78
2021/09/08 01:31:56;;;;;;;;;19.00;19.00;;;;;;;;5067014;28;8962;-79
2021/09/08 01:34:24;;;;;;;;;19.00;16.00;;;;;;;;5065984;28;9545;-78
2021/09/08 01:36:52;;;;;;;;;17.25;17.25;;;;;;;;5063240;28;8926;-78
2021/09/08 01:39:19;;;;;;;;;19.75;18.00;;;;;;;;5062297;28;9654;-78
2021/09/08 01:41:49;;;;;;;;;18.25;17.00;;;;;;;;5065133;28;8878;-78
2021/09/08 01:44:21;;;;;;;;;19.00;18.25;;;;;;;;5066993;28;8857;-77
2021/09/08 01:46:50;;;;;;;;;17.00;17.00;;;;;;;;5068289;28;8852;-78
2021/09/08 01:49:18;;;;;;;;;17.75;17.25;;;;;;;;5036446;28;8904;-78
2021/09/08 01:51:45;;;;;;;;;14.25;14.25;;;;;;;;5079758;28;9639;-79
2021/09/08 01:54:13;;;;;;;;;14.50;14.50;;;;;;;;5065809;28;9755;-78
2021/09/08 01:56:41;;;;;;;;;17.00;17.00;;;;;;;;5053369;28;8903;-78
2021/09/08 01:59:10;;;;;;;;;14.50;14.50;;;;;;;;5069289;28;8885;-78
2021/09/08 02:01:37;;;;;;;;;17.00;17.00;;;;;;;;5071354;28;9620;-78
2021/09/08 02:04:05;;;;;;;;;16.00;16.00;;;;;;;;5051489;28;8853;-77
2021/09/08 02:06:32;;;;;;;;;14.00;14.00;;;;;;;;5076133;28;8899;-78
2021/09/08 02:09:01;;;;;;;;;18.50;16.75;;;;;;;;5073030;28;8891;-78
2021/09/08 02:11:29;;;;;;;;;17.00;17.00;;;;;;;;5050793;28;8896;-77
2021/09/08 02:13:57;;;;;;;;;16.75;16.25;;;;;;;;5071692;28;8869;-78
2021/09/08 02:16:25;;;;;;;;;13.00;12.75;;;;;;;;5056187;28;9307;-79
2021/09/08 02:18:54;;;;;;;;;17.25;14.25;;;;;;;;5075320;28;9044;-78
2021/09/08 02:21:21;;;;;;;;;13.50;12.25;;;;;;;;5055396;28;8965;-79
2021/09/08 02:23:49;;;;;;;;;20.50;15.50;;;;;;;;5068650;28;8875;-79
2021/09/08 02:26:17;;;;;;;;;14.75;14.25;;;;;;;;5071152;28;9617;-77
2021/09/08 02:28:45;;;;;;;;;15.25;14.00;;;;;;;;5073610;28;8866;-78
2021/09/08 02:31:13;;;;;;;;;15.00;15.00;;;;;;;;5072065;28;8851;-79
2021/09/08 02:33:42;;;;;;;;;18.50;17.50;;;;;;;;5070821;28;8852;-78
2021/09/08 02:36:10;;;;;;;;;17.75;17.75;;;;;;;;5069681;28;9017;-80
2021/09/08 02:38:37;;;;;;;;;14.75;14.75;;;;;;;;5059951;28;8926;-80
2021/09/08 02:41:07;;;;;;;;;18.25;18.25;;;;;;;;5077075;28;8867;-80
2021/09/08 02:43:34;;;;;;;;;17.50;16.25;;;;;;;;5068331;28;8978;-80
2021/09/08 02:46:03;;;;;;;;;17.25;15.75;;;;;;;;5068221;28;8905;-79
2021/09/08 02:48:31;;;;;;;;;22.25;18.00;;;;;;;;5069176;28;8856;-80
2021/09/08 02:51:01;;;;;;;;;20.75;19.50;;;;;;;;5069168;28;8874;-80
2021/09/08 02:53:44;;;;;;;;;18.00;15.75;;;;;;;;5104384;27;13553;-81
2021/09/08 02:56:11;;;;;;;;;21.00;18.25;;;;;;;;5081398;28;8843;-80
2021/09/08 02:58:38;;;;;;;;;12.25;12.25;;;;;;;;5095922;28;8864;-79
2021/09/08 03:01:05;;;;;;;;;17.00;17.00;;;;;;;;5076829;28;8795;-80
2021/09/08 03:03:33;;;;;;;;;18.75;18.75;;;;;;;;5047022;28;8915;-78
2021/09/08 03:06:00;;;;;;;;;13.75;13.75;;;;;;;;5043942;28;8882;-78
2021/09/08 03:08:27;;;;;;;;;18.00;17.50;;;;;;;;5043533;28;8934;-78
2021/09/08 03:10:56;;;;;;;;;21.00;19.75;;;;;;;;5045529;28;8880;-78
2021/09/08 03:13:24;;;;;;;;;19.25;18.75;;;;;;;;5046066;28;8934;-80
2021/09/08 03:15:51;;;;;;;;;18.75;17.00;;;;;;;;5053298;28;9681;-79
2021/09/08 03:18:18;;;;;;;;;21.00;19.50;;;;;;;;5048608;28;8869;-79
2021/09/08 03:20:45;;;;;;;;;20.50;18.00;;;;;;;;5043808;28;8892;-80
2021/09/08 03:23:13;;;;;;;;;18.00;18.00;;;;;;;;5050052;28;8966;-78
2021/09/08 03:25:41;;;;;;;;;18.50;18.50;;;;;;;;5048346;28;8861;-80
2021/09/08 03:28:09;;;;;;;;;19.00;18.75;;;;;;;;5042634;28;8898;-79
2021/09/08 03:30:37;;;;;;;;;21.00;19.33;;;;;;;;5045116;28;8828;-79
2021/09/08 03:33:05;;;;;;;;;19.50;19.50;;;;;;;;5047200;28;8902;-79
2021/09/08 03:35:32;;;;;;;;;19.75;19.75;;;;;;;;5045891;28;8969;-79
2021/09/08 03:37:59;;;;;;;;;18.75;16.75;;;;;;;;5040663;28;8896;-79
2021/09/08 03:40:27;;;;;;;;;17.25;17.25;;;;;;;;5043366;28;8933;-77
2021/09/08 03:42:54;;;;;;;;;14.25;13.25;;;;;;;;5051391;28;8900;-79
2021/09/08 03:45:23;;;;;;;;;19.50;18.75;;;;;;;;5044902;28;8873;-79
2021/09/08 03:47:50;;;;;;;;;18.75;18.75;;;;;;;;5042156;28;8883;-76
2021/09/08 03:50:18;;;;;;;;;22.00;21.00;;;;;;;;5046882;28;8882;-77
2021/09/08 03:52:45;;;;;;;;;18.50;17.25;;;;;;;;5048195;28;9606;-81
2021/09/08 03:55:12;;;;;;;;;18.25;16.50;;;;;;;;5051280;28;9317;-80
2021/09/08 03:57:40;;;;;;;;;17.50;16.25;;;;;;;;5042508;28;8869;-79
2021/09/08 04:00:09;;;;;;;;;20.75;20.75;;;;;;;;5045224;28;8879;-77
2021/09/08 04:02:38;;;;;;;;;22.75;19.75;;;;;;;;5043137;28;8849;-79
2021/09/08 04:05:07;;;;;;;;;18.25;17.50;;;;;;;;5028776;28;8887;-80
2021/09/08 04:07:34;;;;;;;;;19.75;17.75;;;;;;;;5029900;28;8917;-79
2021/09/08 04:10:02;;;;;;;;;19.00;19.00;;;;;;;;5042569;28;8883;-77
2021/09/08 04:12:29;;;;;;;;;24.50;18.75;;;;;;;;5031426;28;8860;-79
2021/09/08 04:14:57;;;;;;;;;20.25;16.75;;;;;;;;5035313;28;8868;-80
2021/09/08 04:17:24;;;;;;;;;20.25;20.25;;;;;;;;5033812;28;8880;-80
2021/09/08 04:19:53;;;;;;;;;17.25;17.25;;;;;;;;5032692;28;8873;-79
2021/09/08 04:22:20;;;;;;;;;19.25;18.25;;;;;;;;5032400;28;8872;-80
2021/09/08 04:24:47;;;;;;;;;17.75;17.75;;;;;;;;5035841;28;8857;-79
2021/09/08 04:27:14;;;;;;;;;20.25;18.00;;;;;;;;5034688;28;8881;-80
2021/09/08 04:29:42;;;;;;;;;20.00;19.50;;;;;;;;5030734;28;9617;-81
2021/09/08 04:32:09;;;;;;;;;20.75;19.00;;;;;;;;5029959;28;8940;-80
2021/09/08 04:34:36;;;;;;;;;20.75;19.25;;;;;;;;5031638;28;8879;-80
2021/09/08 04:37:05;;;;;;;;;22.75;20.25;;;;;;;;5033487;28;8885;-80
2021/09/08 04:39:33;;;;;;;;;20.00;19.25;;;;;;;;5030236;28;8876;-80
2021/09/08 04:42:00;;;;;;;;;20.50;17.75;;;;;;;;5028941;28;8888;-79
2021/09/08 04:44:28;;;;;;;;;27.00;24.75;;;;;;;;5026203;28;9606;-81
2021/09/08 04:46:55;;;;;;;;;20.00;20.00;;;;;;;;5029822;28;8868;-86
2021/09/08 04:49:22;;;;;;;;;19.50;19.50;;;;;;;;5033106;28;8872;-83
2021/09/08 04:51:50;;;;;;;;;24.75;23.50;;;;;;;;5029116;28;8895;-82
2021/09/08 04:54:18;;;;;;;;;21.25;20.50;;;;;;;;5022825;28;8967;-79
2021/09/08 04:56:45;;;;;;;;;22.25;20.75;;;;;;;;5026040;28;8922;-80
2021/09/08 04:59:13;;;;;;;;;25.75;24.00;;;;;;;;5024913;28;8888;-79
2021/09/08 05:01:40;;;;;;;;;18.00;16.50;;;;;;;;5022947;28;8826;-80
2021/09/08 05:04:07;;;;;;;;;25.00;22.25;;;;;;;;5027872;28;9259;-81
2021/09/08 05:06:35;;;;;;;;;20.50;20.00;;;;;;;;5023968;28;8885;-79
2021/09/08 05:09:02;;;;;;;;;20.75;18.75;;;;;;;;5024576;28;8894;-80
2021/09/08 05:11:31;;;;;;;;;25.25;24.50;;;;;;;;5024805;28;8860;-79
2021/09/08 05:13:59;;;;;;;;;21.75;20.00;;;;;;;;5026036;28;8875;-81
2021/09/08 05:16:27;;;;;;;;;19.25;18.00;;;;;;;;5025266;28;8938;-82
2021/09/08 05:18:54;;;;;;;;;20.50;19.00;;;;;;;;5025958;28;8961;-82
2021/09/08 05:21:21;;;;;;;;;20.75;20.75;;;;;;;;5024556;28;9684;-83
2021/09/08 05:23:49;;;;;;;;;23.00;18.25;;;;;;;;5024925;28;8855;-80
2021/09/08 05:26:16;;;;;;;;;25.75;22.00;;;;;;;;5022840;28;9680;-83
2021/09/08 05:28:45;;;;;;;;;21.75;19.25;;;;;;;;5024718;28;8890;-83
2021/09/08 05:31:12;;;;;;;;;19.25;18.75;;;;;;;;5007034;28;8827;-81
2021/09/08 05:33:40;;;;;;;;;21.25;19.25;;;;;;;;5005180;28;8898;-82
2021/09/08 05:36:07;;;;;;;;;22.25;20.50;;;;;;;;5010320;28;8892;-79
2021/09/08 05:38:35;;;;;;;;;14.25;12.50;;;;;;;;5025805;28;8858;-87
2021/09/08 05:41:05;;;;;;;;;17.75;17.75;;;;;;;;5025128;28;8900;-84
2021/09/08 05:43:33;;;;;;;;;25.75;22.50;;;;;;;;5010864;28;8910;-87
2021/09/08 05:46:02;;;;;;;;;19.75;18.00;;;;;;;;5017494;28;8868;-80
2021/09/08 05:48:29;;;;;;;;;17.25;17.25;;;;;;;;5009045;28;8884;-84
2021/09/08 05:50:57;;;;;;;;;21.75;21.75;;;;;;;;5025594;28;9007;-86
2021/09/08 05:53:24;;;;;;;;;23.00;22.50;;;;;;;;5024505;28;8920;-86
2021/09/08 05:55:54;;;;;;;;;19.50;19.50;;;;;;;;5023053;28;9596;-81
2021/09/08 05:58:21;;;;;;;;;19.00;19.00;;;;;;;;5006298;28;8981;-82
2021/09/08 06:00:48;;;;;;;;;20.75;20.75;;;;;;;;5013705;28;8933;-82
2021/09/08 06:03:17;;;;;;;;;20.25;19.50;;;;;;;;5022840;28;8846;-82
2021/09/08 06:05:44;;;;;;;;;18.25;18.00;;;;;;;;5012617;28;8927;-83
2021/09/08 06:08:12;;;;;;;;;23.75;22.75;;;;;;;;5016206;28;8860;-84
2021/09/08 06:10:39;;;;;;;;;22.75;22.75;;;;;;;;5010314;28;8868;-85
2021/09/08 06:13:06;;;;;;;;;22.00;17.00;;;;;;;;5008583;28;8887;-84
2021/09/08 06:15:33;;;;;;;;;10.50;10.50;;;;;;;;5012435;28;8935;-79
2021/09/08 06:18:02;;;;;;;;;25.00;24.25;;;;;;;;5015905;28;8980;-86
2021/09/08 06:20:31;;;;;;;;;20.50;20.50;;;;;;;;5006376;28;8938;-83
2021/09/08 06:22:58;;;;;;;;;24.00;22.50;;;;;;;;5009547;28;9663;-81
2021/09/08 06:25:26;;;;;;;;;19.00;19.00;;;;;;;;5012779;28;9693;-81
2021/09/08 06:27:53;;;;;;;;;23.75;19.00;;;;;;;;5022496;28;8907;-82
2021/09/08 06:30:20;;;;;;;;;20.00;17.50;;;;;;;;5006362;28;8975;-81
2021/09/08 06:32:48;;;;;;;;;22.50;20.00;;;;;;;;5007637;28;8914;-81
2021/09/08 06:35:15;;;;;;;;;20.50;19.75;;;;;;;;5003782;28;8900;-82
2021/09/08 06:37:44;;;;;;;;;24.75;21.50;;;;;;;;5020569;28;9721;-83
2021/09/08 06:40:13;;;;;;;;;18.25;18.25;;;;;;;;5016485;28;8861;-83
2021/09/08 06:42:40;;;;;;;;;17.75;17.00;;;;;;;;5014857;28;9650;-81
2021/09/08 06:45:08;;;;;;;;;25.00;23.25;;;;;;;;5023806;28;8874;-82
2021/09/08 06:47:36;;;;;;;;;18.75;16.00;;;;;;;;5018354;28;8890;-82
2021/09/08 06:50:04;;;;;;;;;22.25;21.25;;;;;;;;5002926;28;8897;-81
2021/09/08 06:52:31;;;;;;;;;19.00;17.25;;;;;;;;5023781;28;8923;-81
2021/09/08 06:55:00;;;;;;;;;20.00;19.75;;;;;;;;5012872;28;8861;-82
2021/09/08 06:57:27;;;;;;;;;17.25;17.25;;;;;;;;5010796;28;8900;-82
2021/09/08 06:59:55;;;;;;;;;20.75;19.00;;;;;;;;5006871;28;9654;-82
2021/09/08 07:02:22;;;;;;;;;18.50;18.50;;;;;;;;5007826;28;8896;-82
2021/09/08 07:04:49;;;;;;;;;18.50;18.50;;;;;;;;5011713;28;8853;-82
2021/09/08 07:07:19;;;;;;;;;20.50;20.50;;;;;;;;5013790;28;9024;-82
2021/09/08 07:09:47;;;;;;;;;18.25;17.75;;;;;;;;5011992;28;8878;-81
2021/09/08 07:12:16;;;;;;;;;20.00;20.00;;;;;;;;5009164;28;8981;-80
2021/09/08 07:14:43;;;;;;;;;22.25;22.25;;;;;;;;5013640;28;8868;-82
2021/09/08 07:17:10;;;;;;;;;19.00;18.00;;;;;;;;5014101;28;9623;-81
2021/09/08 07:19:38;;;;;;;;;19.00;18.75;;;;;;;;5009588;28;8868;-81
2021/09/08 07:22:05;;;;;;;;;23.75;20.75;;;;;;;;5022165;28;8869;-81
2021/09/08 07:24:32;;;;;;;;;17.25;17.25;;;;;;;;5011585;28;8874;-81
2021/09/08 07:27:00;;;;;;;;;18.25;17.50;;;;;;;;5023439;28;9019;-81
2021/09/08 07:29:29;;;;;;;;;16.00;16.00;;;;;;;;5011386;28;8880;-81
2021/09/08 07:31:57;;;;;;;;;14.75;14.75;;;;;;;;5011376;28;9591;-80
2021/09/08 07:34:25;;;;;;;;;19.00;17.00;;;;;;;;5008089;28;8923;-81
2021/09/08 07:36:52;;;;;;;;;20.75;19.00;;;;;;;;5005622;28;9587;-80
2021/09/08 07:39:20;;;;;;;;;22.75;18.50;;;;;;;;5011710;28;8915;-81
2021/09/08 07:41:47;;;;;;;;;17.00;17.00;;;;;;;;5017520;28;8884;-80
2021/09/08 07:44:14;;;;;;;;;18.25;18.25;;;;;;;;5013625;28;8865;-81
2021/09/08 07:47:13;;;;;;;;;18.00;18.00;;;;;;;;5010957;28;8878;-79
2021/09/08 07:49:41;;;;;;;;;14.75;13.25;;;;;;;;5006392;28;8881;-81
2021/09/08 07:52:08;;;;;;;;;21.25;19.75;;;;;;;;5016744;28;8888;-80
2021/09/08 07:54:35;;;;;;;;;17.25;17.00;;;;;;;;5013979;28;8991;-80
2021/09/08 07:57:03;;;;;;;;;16.25;14.75;;;;;;;;5021387;28;8996;-82
2021/09/08 07:59:30;;;;;;;;;11.25;11.25;;;;;;;;5017667;28;8856;-80
2021/09/08 08:01:58;;;;;;;;;18.20;18.20;;;;;;;;5014896;28;8947;-81
2021/09/08 08:04:26;;;;;;;;;17.75;17.75;;;;;;;;5011930;28;8864;-81
2021/09/08 08:06:53;;;;;;;;;16.00;15.40;;;;;;;;5012713;28;8980;-82
2021/09/08 08:09:21;;;;;;;;;18.20;17.80;;;;;;;;5012899;28;9673;-81
2021/09/08 08:11:48;;;;;;;;;19.00;19.00;;;;;;;;5011902;28;8988;-82
2021/09/08 08:14:16;;;;;;;;;14.80;14.80;;;;;;;;5003823;28;9011;-80
2021/09/08 08:16:46;;;;;;;;;16.00;15.80;;;;;;;;5010139;28;8958;-83
2021/09/08 08:19:36;;;;;;;;;15.00;15.00;;;;;;;;5016411;28;8862;-82
2021/09/08 08:22:05;;;;;;;;;17.00;17.00;;;;;;;;5011464;28;8878;-80
2021/09/08 08:24:35;;;;;;;;;16.80;16.20;;;;;;;;5014285;28;8872;-81
2021/09/08 08:27:04;;;;;;;;;15.40;14.00;;;;;;;;5015689;28;8899;-84
2021/09/08 08:29:36;;;;;;;;;16.20;16.20;;;;;;;;5020941;28;8856;-85
2021/09/08 08:32:06;;;;;;;;;19.20;18.60;;;;;;;;5043494;28;8947;-84
2021/09/08 08:34:35;;;;;;;;;21.80;18.80;;;;;;;;5013406;28;8920;-83
2021/09/08 08:37:03;;;;;;;;;16.20;15.40;;;;;;;;5011587;28;8881;-83
2021/09/08 08:39:30;;;;;;;;;16.00;15.00;;;;;;;;5014349;28;8880;-82
2021/09/08 08:41:57;;;;;;;;;15.60;14.80;;;;;;;;5011635;28;8866;-82
2021/09/08 08:44:26;;;;;;;;;15.60;14.20;;;;;;;;5018913;28;8865;-82
2021/09/08 08:46:54;;;;;;;;;16.20;15.60;;;;;;;;5011437;28;8854;-83
2021/09/08 08:49:22;;;;;;;;;15.80;15.80;;;;;;;;5011118;28;8974;-82
2021/09/08 08:51:51;;;;;;;;;15.20;15.20;;;;;;;;5013692;28;8872;-83
2021/09/08 08:54:18;;;;;;;;;16.80;15.40;;;;;;;;5017289;28;8987;-80
2021/09/08 08:56:46;;;;;;;;;16.40;15.80;;;;;;;;5010566;28;8899;-80
2021/09/08 08:59:13;;;;;;;;;18.60;16.80;;;;;;;;5014605;28;8970;-80
2021/09/08 09:01:41;;;;;;;;;15.20;14.40;;;;;;;;5013439;28;8828;-79
2021/09/08 09:04:10;;;;;;;;;14.80;14.80;;;;;;;;5011505;28;8870;-82
2021/09/08 09:06:40;;;;;;;;;15.80;15.80;;;;;;;;5025199;28;8861;-81
2021/09/08 09:09:11;;;;;;;;;10.60;9.40;;;;;;;;5015411;28;8850;-79
2021/09/08 09:11:40;;;;;;;;;15.40;14.80;;;;;;;;5009861;28;9034;-80
2021/09/08 09:14:10;;;;;;;;;10.80;10.80;;;;;;;;5014157;28;8861;-80
2021/09/08 09:16:39;;;;;;;;;15.40;15.40;;;;;;;;5008561;28;8910;-81
2021/09/08 09:19:07;;;;;;;;;18.60;18.00;;;;;;;;5011480;28;9677;-80
2021/09/08 09:21:35;;;;;;;;;9.80;9.80;;;;;;;;5010126;28;8913;-80
2021/09/08 09:24:05;;;;;;;;;16.20;16.20;;;;;;;;5012773;28;8902;-79
2021/09/08 09:26:36;;;;;;;;;17.00;16.20;;;;;;;;5012131;28;8844;-80
2021/09/08 09:29:07;;;;;;;;;14.00;14.00;;;;;;;;5011913;28;8868;-78
2021/09/08 09:31:35;;;;;;;;;18.00;16.00;;;;;;;;5012420;28;8808;-78
2021/09/08 09:34:02;;;;;;;;;14.80;14.60;;;;;;;;5017404;28;8900;-78
2021/09/08 09:36:30;;;;;;;;;17.20;14.80;;;;;;;;5020298;28;8879;-79
2021/09/08 09:38:58;;;;;;;;;13.60;13.20;;;;;;;;5024215;28;8893;-79
2021/09/08 09:41:35;;;;;;;;;14.80;14.80;;;;;;;;5024673;28;8869;-78
2021/09/08 09:44:09;;;;;;;;;16.80;16.80;;;;;;;;5019168;28;8893;-78
2021/09/08 09:46:38;;;;;;;;;17.40;14.40;;;;;;;;5020983;28;8908;-79
2021/09/08 09:49:05;;;;;;;;;14.80;14.80;;;;;;;;5013349;28;8912;-79
2021/09/08 09:51:33;;;;;;;;;13.20;13.20;;;;;;;;5023481;28;8895;-79
2021/09/08 09:54:00;;;;;;;;;12.00;10.60;;;;;;;;5012810;28;8868;-79
2021/09/08 09:56:27;;;;;;;;;13.40;13.20;;;;;;;;5022714;28;8885;-79
2021/09/08 09:58:56;;;;;;;;;11.80;11.80;;;;;;;;5018072;28;8865;-79
2021/09/08 10:01:23;;;;;;;;;12.20;12.20;;;;;;;;5022928;28;8814;-79
2021/09/08 10:03:51;;;;;;;;;15.60;15.60;;;;;;;;5021970;28;8881;-77
2021/09/08 10:06:20;;;;;;;;;16.40;14.20;;;;;;;;5024610;28;8887;-78
2021/09/08 10:08:49;;;;;;;;;15.80;14.20;;;;;;;;5023008;28;8869;-78
2021/09/08 10:11:20;;;;;;;;;15.20;15.20;;;;;;;;5019780;28;8873;-80
2021/09/08 10:13:53;;;;;;;;;17.60;15.60;;;;;;;;5011571;28;8897;-79
2021/09/08 10:16:24;;;;;;;;;12.00;12.00;;;;;;;;5010552;28;8927;-79
2021/09/08 10:18:52;;;;;;;;;13.20;13.20;;;;;;;;5012765;28;8878;-81
2021/09/08 10:21:20;;;;;;;;;13.00;13.00;;;;;;;;5002409;28;8918;-80
2021/09/08 10:23:55;;;;;;;;;14.60;14.60;;;;;;;;5010194;28;8886;-80
2021/09/08 10:26:28;;;;;;;;;16.60;15.00;;;;;;;;5008782;28;8856;-79
2021/09/08 10:29:05;;;;;;;;;14.40;14.40;;;;;;;;5014481;28;8875;-80
2021/09/08 10:31:34;;;;;;;;;14.40;12.80;;;;;;;;5013153;28;8806;-80
2021/09/08 10:34:03;;;;;;;;;14.20;14.20;;;;;;;;5009583;28;8860;-79
2021/09/08 10:36:30;;;;;;;;;12.80;12.80;;;;;;;;5008127;28;9713;-80
2021/09/08 10:39:09;;;;;;;;;14.00;13.60;;;;;;;;5010775;28;8875;-80
2021/09/08 10:41:42;;;;;;;;;12.80;12.80;;;;;;;;5009757;28;8991;-80
2021/09/08 10:44:10;;;;;;;;;14.20;14.20;;;;;;;;5012934;28;8988;-80
2021/09/08 10:46:57;;;;;;;;;15.00;15.00;;;;;;;;5005838;28;8858;-81
2021/09/08 10:49:47;;;;;;;;;11.20;10.00;;;;;;;;5011425;28;8884;-80
2021/09/08 10:52:15;;;;;;;;;13.80;13.80;;;;;;;;5008762;28;8996;-81
2021/09/08 10:55:11;;;;;;;;;15.20;13.40;;;;;;;;5008437;28;9283;-79
2021/09/08 10:58:09;;;;;;;;;13.40;12.80;;;;;;;;5012833;28;8947;-79
2021/09/08 11:00:39;;;;;;;;;13.00;13.00;;;;;;;;4958164;28;8836;-80
2021/09/08 11:03:25;;;;;;;;;12.80;12.20;;;;;;;;5003561;28;8891;-80
2021/09/08 11:05:54;;;;;;;;;12.00;12.00;;;;;;;;5010448;28;8872;-80
2021/09/08 11:08:23;;;;;;;;;13.00;12.80;;;;;;;;5012793;28;9060;-80
2021/09/08 11:10:51;;;;;;;;;11.80;11.80;;;;;;;;5005935;28;9619;-79
2021/09/08 11:13:27;;;;;;;;;14.20;12.60;;;;;;;;5010147;28;8892;-80
2021/09/08 11:15:55;;;;;;;;;15.40;13.40;;;;;;;;5011776;28;8897;-79
2021/09/08 11:18:34;;;;;;;;;14.80;14.80;;;;;;;;5013713;28;9008;-77
2021/09/08 11:21:03;;;;;;;;;12.20;12.20;;;;;;;;5012348;28;9682;-80
2021/09/08 11:23:31;;;;;;;;;9.40;9.40;;;;;;;;5013038;28;8886;-80
2021/09/08 11:26:06;;;;;;;;;12.40;12.40;;;;;;;;5009325;28;8889;-79
2021/09/08 11:28:34;;;;;;;;;15.00;13.40;;;;;;;;5011785;28;8867;-80
2021/09/08 11:31:10;;;;;;;;;12.60;12.60;;;;;;;;5008167;28;8816;-82
2021/09/08 11:33:39;;;;;;;;;14.20;12.20;;;;;;;;5017707;28;8867;-78
2021/09/08 11:36:14;;;;;;;;;15.00;12.20;;;;;;;;5007269;28;9004;-79
2021/09/08 11:38:50;;;;;;;;;12.40;12.40;;;;;;;;5011029;28;8877;-78
2021/09/08 11:41:18;;;;;;;;;13.40;13.20;;;;;;;;5009414;28;9842;-79
2021/09/08 11:43:48;;;;;;;;;10.60;10.60;;;;;;;;5011375;28;8976;-78
2021/09/08 11:46:18;;;;;;;;;12.00;12.00;;;;;;;;5012646;28;8869;-77
2021/09/08 11:48:49;;;;;;;;;11.60;10.40;;;;;;;;5007770;28;8927;-81
2021/09/08 11:51:19;;;;;;;;;13.00;13.00;;;;;;;;5013873;28;8882;-78
2021/09/08 11:53:48;;;;;;;;;13.00;13.00;;;;;;;;5009597;28;8864;-78
2021/09/08 11:56:17;;;;;;;;;13.80;12.60;;;;;;;;5012757;28;8869;-78
2021/09/08 11:58:45;;;;;;;;;13.60;11.80;;;;;;;;5012703;28;8878;-77
2021/09/08 12:01:13;;;;;;;;;12.20;12.20;;;;;;;;5007390;28;8840;-78
2021/09/08 12:03:42;;;;;;;;;15.00;13.20;;;;;;;;5009672;28;8844;-78
2021/09/08 12:06:14;;;;;;;;;12.00;12.00;;;;;;;;5007514;28;8883;-79
2021/09/08 12:08:49;;;;;;;;;13.20;12.80;;;;;;;;5009900;28;8884;-77
2021/09/08 12:11:34;;;;;;;;;11.80;11.80;;;;;;;;5006746;28;8899;-80
2021/09/08 12:14:16;;;;;;;;;12.80;12.80;;;;;;;;5007867;28;8887;-77
2021/09/08 12:16:44;;;;;;;;;14.80;13.20;;;;;;;;5008323;28;8864;-80
2021/09/08 12:19:12;;;;;;;;;13.80;13.80;;;;;;;;5006824;28;8907;-81
2021/09/08 12:21:41;;;;;;;;;13.00;12.80;;;;;;;;5007475;28;8875;-78
2021/09/08 12:24:22;;;;;;;;;13.00;11.40;;;;;;;;5010493;28;8906;-78
2021/09/08 12:26:50;;;;;;;;;10.60;10.60;;;;;;;;5009772;28;8872;-78
2021/09/08 12:29:17;;;;;;;;;9.40;9.40;;;;;;;;5011827;28;8878;-77
2021/09/08 12:31:49;;;;;;;;;10.80;10.80;;;;;;;;5008138;28;8823;-77
2021/09/08 12:34:17;;;;;;;;;10.60;10.60;;;;;;;;5006026;28;8876;-79
2021/09/08 12:36:46;;;;;;;;;12.00;10.00;;;;;;;;5003245;28;8865;-79
2021/09/08 12:39:17;;;;;;;;;11.00;11.00;;;;;;;;5005815;28;8898;-78
2021/09/08 12:41:56;;;;;;;;;11.20;11.20;;;;;;;;5004201;28;9035;-80
2021/09/08 12:44:33;;;;;;;;;12.00;12.00;;;;;;;;4995389;28;8900;-80
2021/09/08 12:47:12;;;;;;;;;11.60;10.20;;;;;;;;4996914;28;8910;-81
2021/09/08 12:49:39;;;;;;;;;12.20;12.20;;;;;;;;5006883;28;8874;-82
2021/09/08 12:52:11;;;;;;;;;11.60;10.80;;;;;;;;5002471;28;8911;-80
2021/09/08 12:54:39;;;;;;;;;12.80;12.80;;;;;;;;4999883;28;8872;-84
2021/09/08 12:57:08;;;;;;;;;12.00;12.00;;;;;;;;5018081;28;9030;-82
2021/09/08 12:59:36;;;;;;;;;11.60;11.60;;;;;;;;5003252;28;8998;-81
2021/09/08 13:02:06;;;;;;;;;10.00;10.00;;;;;;;;5019080;28;8832;-82
2021/09/08 13:04:34;;;;;;;;;10.00;10.00;;;;;;;;5004612;28;8892;-82
2021/09/08 13:07:01;;;;;;;;;14.20;10.80;;;;;;;;5007112;28;8918;-82
2021/09/08 13:09:31;;;;;;;;;11.00;11.00;;;;;;;;5010194;28;8926;-81
2021/09/08 13:11:59;;;;;;;;;11.60;11.60;;;;;;;;5002227;28;9642;-81
2021/09/08 13:14:27;;;;;;;;;11.80;10.20;;;;;;;;4999709;28;8933;-82
2021/09/08 13:16:56;;;;;;;;;11.00;11.00;;;;;;;;5006154;28;9012;-81
2021/09/08 13:19:23;;;;;;;;;14.80;13.40;;;;;;;;5018739;28;9010;-82
2021/09/08 13:21:51;;;;;;;;;14.20;14.20;;;;;;;;5005500;28;8860;-82
2021/09/08 13:24:19;;;;;;;;;15.20;12.80;;;;;;;;5003543;28;8868;-81
2021/09/08 13:26:49;;;;;;;;;11.80;11.80;;;;;;;;5008041;28;8983;-81
2021/09/08 13:29:16;;;;;;;;;12.20;12.20;;;;;;;;5015561;28;9024;-83
2021/09/08 13:31:44;;;;;;;;;14.20;14.20;;;;;;;;5024766;28;8935;-81
2021/09/08 13:34:12;;;;;;;;;11.60;10.60;;;;;;;;5009770;28;9684;-81
2021/09/08 13:36:40;;;;;;;;;11.80;11.20;;;;;;;;5011994;28;8869;-81
2021/09/08 13:39:10;;;;;;;;;12.00;12.00;;;;;;;;5006005;28;8895;-81
2021/09/08 13:41:38;;;;;;;;;10.00;10.00;;;;;;;;5015635;28;9588;-81
2021/09/08 13:44:07;;;;;;;;;11.40;10.20;;;;;;;;5001889;28;8896;-80
2021/09/08 13:46:35;;;;;;;;;10.80;9.80;;;;;;;;5013560;28;8898;-80
2021/09/08 13:49:03;;;;;;;;;10.60;10.60;;;;;;;;5010104;28;9006;-80
2021/09/08 13:51:31;;;;;;;;;10.20;10.20;;;;;;;;5011789;28;8924;-80
2021/09/08 13:53:58;;;;;;;;;9.20;9.20;;;;;;;;5008094;28;8896;-79
2021/09/08 13:56:25;;;;;;;;;13.40;10.80;;;;;;;;5009664;28;8864;-82
2021/09/08 13:58:56;;;;;;;;;11.20;11.20;;;;;;;;5006656;28;8864;-84
2021/09/08 14:01:24;;;;;;;;;7.40;7.40;;;;;;;;5006263;28;9636;-79
2021/09/08 14:03:52;;;;;;;;;10.60;10.60;;;;;;;;5007766;28;8849;-79
2021/09/08 14:06:20;;;;;;;;;10.60;10.60;;;;;;;;5011249;28;9006;-79
2021/09/08 14:08:48;;;;;;;;;9.60;9.60;;;;;;;;5008479;28;8869;-81
2021/09/08 14:11:15;;;;;;;;;10.40;9.00;;;;;;;;5010191;28;8857;-81
2021/09/08 14:13:42;;;;;;;;;9.80;9.80;;;;;;;;5009225;28;8893;-77
2021/09/08 14:16:11;;;;;;;;;9.40;9.00;;;;;;;;5004428;28;9012;-76
2021/09/08 14:18:39;;;;;;;;;10.40;10.40;;;;;;;;5010583;28;8906;-76
2021/09/08 14:21:07;;;;;;;;;11.40;9.80;;;;;;;;5005139;28;8887;-76
2021/09/08 14:23:35;;;;;;;;;12.00;12.00;;;;;;;;5010325;28;8879;-77
2021/09/08 14:26:02;;;;;;;;;10.00;10.00;;;;;;;;5006685;28;8860;-76
2021/09/08 14:28:29;;;;;;;;;10.00;9.80;;;;;;;;5011225;28;8872;-77
2021/09/08 14:30:57;;;;;;;;;10.40;9.60;;;;;;;;5004282;28;8909;-76
2021/09/08 14:33:26;;;;;;;;;13.00;11.40;;;;;;;;5008838;28;8890;-78
2021/09/08 14:35:55;;;;;;;;;8.40;8.40;;;;;;;;5005616;28;8916;-76
2021/09/08 14:38:23;;;;;;;;;13.80;11.00;;;;;;;;5009853;28;8856;-78
2021/09/08 14:40:50;;;;;;;;;9.20;9.20;;;;;;;;5010093;28;8872;-78